Wan Hai 501 — S6AS7 — position and weather

sailwx.info

Track history (hours):
 
Tides and Currents Weather Stations Pressure Air Temp Water Temp Dewpoint Dewpoint Depression Visibility Wind Speed Wind Dir Waves Ship Positions

Wan Hai 501

Last reported at 2016-Dec-09 22:08 UTC. Time now 2016-Dec-10 10:57 UTC.
Position N 35°02' E 139°38'.

Length 269 m; draft 10.5 m.

Type: Cargo ship. MMSI: 563382000.

Date/timePositionNaut miles runAvg speedWind from/ knotsBaromVisibWave heightAir tempDewpointWater temp
2016-Dec-09 22:08N 35°02' E 139°38'916.2
2016-Dec-09 21:33N 35°10' E 139°45'1212.4
2016-Dec-09 20:33N 35°22' E 139°42'1313.2
2016-Dec-09 19:33N 35°34' E 139°49'3 2.9
2016-Dec-09 18:32N 35°36' E 139°46'0 0.0
2016-Dec-09 17:32N 35°36' E 139°46'0 0.0
2016-Dec-09 16:32N 35°36' E 139°46'0 0.0
2016-Dec-09 15:29N 35°36' E 139°46'0 0.0
2016-Dec-09 14:32N 35°36' E 139°46'0 0.0
2016-Dec-09 13:32N 35°36' E 139°46'0 0.0
2016-Dec-09 12:32N 35°36' E 139°46'0 0.0
2016-Dec-09 11:32N 35°36' E 139°46'0 0.0
2016-Dec-09 10:26N 35°36' E 139°46'0 0.0
2016-Dec-09 09:32N 35°36' E 139°46'0 0.0
2016-Dec-09 08:32N 35°36' E 139°46'0 0.0
2016-Dec-09 07:32N 35°36' E 139°46'0 0.0
2016-Dec-09 06:29N 35°36' E 139°46'0 0.0
2016-Dec-09 05:32N 35°36' E 139°46'0 0.0
2016-Dec-09 04:23N 35°36' E 139°46'0 0.0
2016-Dec-09 03:29N 35°36' E 139°46'0 0.0
2016-Dec-09 02:32N 35°36' E 139°46'0 0.0
2016-Dec-09 01:32N 35°36' E 139°46'0 0.0
2016-Dec-09 00:32N 35°36' E 139°46'0 0.0
2016-Dec-08 23:32N 35°36' E 139°46'0 0.0
2016-Dec-08 22:29N 35°36' E 139°46'6 6.4
2016-Dec-08 21:33N 35°33' E 139°52'7 6.9
2016-Dec-08 20:33N 35°26' E 139°48'5 5.2
2016-Dec-08 19:31N 35°26' E 139°41'0 0.0
2016-Dec-08 18:31N 35°26' E 139°41'0 0.0
2016-Dec-08 17:31N 35°26' E 139°41'0 0.0
2016-Dec-08 16:31N 35°26' E 139°41'0 0.0
2016-Dec-08 15:31N 35°26' E 139°41'0 0.0
2016-Dec-08 14:31N 35°26' E 139°41'0 0.0
2016-Dec-08 13:31N 35°26' E 139°41'0 0.0
2016-Dec-08 12:31N 35°26' E 139°41'0 0.0
2016-Dec-08 11:31N 35°26' E 139°41'0 0.0
2016-Dec-08 10:31N 35°26' E 139°41'0 0.0
2016-Dec-08 09:31N 35°26' E 139°41'0 0.0
2016-Dec-08 08:31N 35°26' E 139°41'0 0.0
2016-Dec-08 07:31N 35°26' E 139°41'0 0.0
2016-Dec-08 06:31N 35°26' E 139°41'0 0.5
2016-Dec-08 05:33N 35°27' E 139°42'7 7.3
2016-Dec-08 04:33N 35°20' E 139°43'1111.2
2016-Dec-08 03:33N 35°08' E 139°46'247 7.9
2016-Dec-06 20:14N 33°51' E 135°01'2716.1
2016-Dec-06 18:33N 34°17' E 134°59'1818.0
2016-Dec-06 17:34N 34°32' E 135°12'8 7.3
2016-Dec-06 16:28N 34°39' E 135°15'0 0.0
2016-Dec-06 15:28N 34°39' E 135°15'0 0.0
2016-Dec-06 14:28N 34°39' E 135°15'0 0.0
2016-Dec-06 13:22N 34°39' E 135°15'0 0.0
2016-Dec-06 12:28N 34°39' E 135°15'0 0.0
2016-Dec-06 11:28N 34°39' E 135°15'0 0.0
2016-Dec-06 10:22N 34°39' E 135°15'0 0.0
2016-Dec-06 09:22N 34°39' E 135°15'4 5.2
2016-Dec-06 08:33N 34°37' E 135°19'6 5.9
2016-Dec-06 07:30N 34°38' E 135°26'0 0.0
2016-Dec-06 04:06N 34°38' E 135°26'0 0.0
2016-Dec-06 03:30N 34°38' E 135°26'0 0.0
2016-Dec-06 02:24N 34°38' E 135°26'0 0.0
2016-Dec-06 01:30N 34°38' E 135°26'0 0.0
2016-Dec-06 00:30N 34°38' E 135°26'0 0.0
2016-Dec-05 23:18N 34°38' E 135°26'0 0.0
2016-Dec-05 22:30N 34°38' E 135°26'0 0.0
2016-Dec-05 20:30N 34°38' E 135°26'0 0.0
2016-Dec-05 19:30N 34°38' E 135°26'0 0.0
2016-Dec-05 18:18N 34°38' E 135°26'0 0.0
2016-Dec-05 17:24N 34°38' E 135°26'0 0.0
2016-Dec-05 16:30N 34°38' E 135°26'0 0.0
2016-Dec-05 15:18N 34°38' E 135°26'0 0.0
2016-Dec-05 12:30N 34°38' E 135°26'0 0.0
2016-Dec-05 11:30N 34°38' E 135°26'0 0.0
2016-Dec-05 10:30N 34°38' E 135°26'0 0.0
2016-Dec-05 09:30N 34°38' E 135°26'0 0.0
2016-Dec-05 08:30N 34°38' E 135°26'0 0.0
2016-Dec-05 07:12N 34°38' E 135°26'0 0.0
2016-Dec-05 06:18N 34°38' E 135°26'0 0.0
2016-Dec-05 05:30N 34°38' E 135°26'0 0.0
2016-Dec-05 02:30N 34°38' E 135°26'0 0.0
2016-Dec-05 01:18N 34°38' E 135°26'0 0.0
2016-Dec-05 00:30N 34°38' E 135°26'0 0.0
2016-Dec-04 23:24N 34°38' E 135°26'1 1.8
2016-Dec-04 22:33N 34°39' E 135°25'1212.1
2016-Dec-04 21:33N 34°31' E 135°14'1717.3
2016-Dec-04 20:33N 34°18' E 134°60'1111.0
2016-Dec-04 19:33N 34°07' E 134°59'1413.2
2016-Dec-04 18:32N 33°54' E 134°56'  
2016-Dec-02 13:06N 25°16' E 119°54'915.2
2016-Dec-02 12:32N 25°11' E 119°46'6929.8
2016-Dec-02 10:12N 24°26' E 118°47'5 3.1
2016-Dec-02 08:32N 24°23' E 118°43'3 3.3
2016-Dec-02 07:33N 24°21' E 118°40'2523.3
2016-Dec-02 06:28N 24°04' E 118°19'1010.2
2016-Dec-02 05:31N 23°56' E 118°13'1917.8
2016-Dec-02 04:29N 23°43' E 117°58'7515.3
2016-Dec-01 23:32N 22°59' E 116°52'15714.3
2016-Dec-01 12:33N 22°20' E 114°07'0 0.0
2016-Dec-01 02:21N 22°20' E 114°07'11 2.8
2016-Nov-30 22:16N 22°22' E 113°55'6 7.7
2016-Nov-30 21:33N 22°27' E 113°54'0 0.2
2016-Nov-30 20:29N 22°27' E 113°54'0 0.0
2016-Nov-30 19:29N 22°27' E 113°54'0 0.0
2016-Nov-30 18:29N 22°27' E 113°54'0 0.0
2016-Nov-30 17:29N 22°27' E 113°54'0 0.0
2016-Nov-30 16:29N 22°27' E 113°54'0 0.0
2016-Nov-30 15:17N 22°27' E 113°54'0 0.0
2016-Nov-30 13:29N 22°27' E 113°54'0 0.0
2016-Nov-30 12:23N 22°27' E 113°54'0 0.0
2016-Nov-30 09:18N 22°27' E 113°54'0 0.0
2016-Nov-30 08:29N 22°27' E 113°54'0 0.0
2016-Nov-30 07:08N 22°27' E 113°54'  
Track history (hours):
 
Tides and Currents Weather Stations Pressure Air Temp Water Temp Dewpoint Dewpoint Depression Visibility Wind Speed Wind Dir Waves Ship Positions

Wan Hai 501

Last reported at 2016-Dec-09 22:08 UTC. Time now 2016-Dec-10 10:57 UTC.
Position N 35°02' E 139°38'.

Length 269 m; draft 10.5 m.

Type: Cargo ship. MMSI: 563382000.

Date/timePositionNaut miles runAvg speedWind from/ knotsBaromVisibWave heightAir tempDewpointWater temp
2016-Dec-09 22:08N 35°02' E 139°38'916.2
2016-Dec-09 21:33N 35°10' E 139°45'1212.4
2016-Dec-09 20:33N 35°22' E 139°42'1313.2
2016-Dec-09 19:33N 35°34' E 139°49'3 2.9
2016-Dec-09 18:32N 35°36' E 139°46'0 0.0
2016-Dec-09 17:32N 35°36' E 139°46'0 0.0
2016-Dec-09 16:32N 35°36' E 139°46'0 0.0
2016-Dec-09 15:29N 35°36' E 139°46'0 0.0
2016-Dec-09 14:32N 35°36' E 139°46'0 0.0
2016-Dec-09 13:32N 35°36' E 139°46'0 0.0
2016-Dec-09 12:32N 35°36' E 139°46'0 0.0
2016-Dec-09 11:32N 35°36' E 139°46'0 0.0
2016-Dec-09 10:26N 35°36' E 139°46'0 0.0
2016-Dec-09 09:32N 35°36' E 139°46'0 0.0
2016-Dec-09 08:32N 35°36' E 139°46'0 0.0
2016-Dec-09 07:32N 35°36' E 139°46'0 0.0
2016-Dec-09 06:29N 35°36' E 139°46'0 0.0
2016-Dec-09 05:32N 35°36' E 139°46'0 0.0
2016-Dec-09 04:23N 35°36' E 139°46'0 0.0
2016-Dec-09 03:29N 35°36' E 139°46'0 0.0
2016-Dec-09 02:32N 35°36' E 139°46'0 0.0
2016-Dec-09 01:32N 35°36' E 139°46'0 0.0
2016-Dec-09 00:32N 35°36' E 139°46'0 0.0
2016-Dec-08 23:32N 35°36' E 139°46'0 0.0
2016-Dec-08 22:29N 35°36' E 139°46'6 6.4
2016-Dec-08 21:33N 35°33' E 139°52'7 6.9
2016-Dec-08 20:33N 35°26' E 139°48'5 5.2
2016-Dec-08 19:31N 35°26' E 139°41'0 0.0
2016-Dec-08 18:31N 35°26' E 139°41'0 0.0
2016-Dec-08 17:31N 35°26' E 139°41'0 0.0
2016-Dec-08 16:31N 35°26' E 139°41'0 0.0
2016-Dec-08 15:31N 35°26' E 139°41'0 0.0
2016-Dec-08 14:31N 35°26' E 139°41'0 0.0
2016-Dec-08 13:31N 35°26' E 139°41'0 0.0
2016-Dec-08 12:31N 35°26' E 139°41'0 0.0
2016-Dec-08 11:31N 35°26' E 139°41'0 0.0
2016-Dec-08 10:31N 35°26' E 139°41'0 0.0
2016-Dec-08 09:31N 35°26' E 139°41'0 0.0
2016-Dec-08 08:31N 35°26' E 139°41'0 0.0
2016-Dec-08 07:31N 35°26' E 139°41'0 0.0
2016-Dec-08 06:31N 35°26' E 139°41'0 0.5
2016-Dec-08 05:33N 35°27' E 139°42'7 7.3
2016-Dec-08 04:33N 35°20' E 139°43'1111.2
2016-Dec-08 03:33N 35°08' E 139°46'247 7.9
2016-Dec-06 20:14N 33°51' E 135°01'2716.1
2016-Dec-06 18:33N 34°17' E 134°59'1818.0
2016-Dec-06 17:34N 34°32' E 135°12'8 7.3
2016-Dec-06 16:28N 34°39' E 135°15'0 0.0
2016-Dec-06 15:28N 34°39' E 135°15'0 0.0
2016-Dec-06 14:28N 34°39' E 135°15'0 0.0
2016-Dec-06 13:22N 34°39' E 135°15'0 0.0
2016-Dec-06 12:28N 34°39' E 135°15'0 0.0
2016-Dec-06 11:28N 34°39' E 135°15'0 0.0
2016-Dec-06 10:22N 34°39' E 135°15'0 0.0
2016-Dec-06 09:22N 34°39' E 135°15'4 5.2
2016-Dec-06 08:33N 34°37' E 135°19'6 5.9
2016-Dec-06 07:30N 34°38' E 135°26'0 0.0
2016-Dec-06 04:06N 34°38' E 135°26'0 0.0
2016-Dec-06 03:30N 34°38' E 135°26'0 0.0
2016-Dec-06 02:24N 34°38' E 135°26'0 0.0
2016-Dec-06 01:30N 34°38' E 135°26'0 0.0
2016-Dec-06 00:30N 34°38' E 135°26'0 0.0
2016-Dec-05 23:18N 34°38' E 135°26'0 0.0
2016-Dec-05 22:30N 34°38' E 135°26'0 0.0
2016-Dec-05 20:30N 34°38' E 135°26'0 0.0
2016-Dec-05 19:30N 34°38' E 135°26'0 0.0
2016-Dec-05 18:18N 34°38' E 135°26'0 0.0
2016-Dec-05 17:24N 34°38' E 135°26'0 0.0
2016-Dec-05 16:30N 34°38' E 135°26'0 0.0
2016-Dec-05 15:18N 34°38' E 135°26'0 0.0
2016-Dec-05 12:30N 34°38' E 135°26'0 0.0
2016-Dec-05 11:30N 34°38' E 135°26'0 0.0
2016-Dec-05 10:30N 34°38' E 135°26'0 0.0
2016-Dec-05 09:30N 34°38' E 135°26'0 0.0
2016-Dec-05 08:30N 34°38' E 135°26'0 0.0
2016-Dec-05 07:12N 34°38' E 135°26'0 0.0
2016-Dec-05 06:18N 34°38' E 135°26'0 0.0
2016-Dec-05 05:30N 34°38' E 135°26'0 0.0
2016-Dec-05 02:30N 34°38' E 135°26'0 0.0
2016-Dec-05 01:18N 34°38' E 135°26'0 0.0
2016-Dec-05 00:30N 34°38' E 135°26'0 0.0
2016-Dec-04 23:24N 34°38' E 135°26'1 1.8
2016-Dec-04 22:33N 34°39' E 135°25'1212.1
2016-Dec-04 21:33N 34°31' E 135°14'1717.3
2016-Dec-04 20:33N 34°18' E 134°60'1111.0
2016-Dec-04 19:33N 34°07' E 134°59'1413.2
2016-Dec-04 18:32N 33°54' E 134°56'  
2016-Dec-02 13:06N 25°16' E 119°54'915.2
2016-Dec-02 12:32N 25°11' E 119°46'6929.8
2016-Dec-02 10:12N 24°26' E 118°47'5 3.1
2016-Dec-02 08:32N 24°23' E 118°43'3 3.3
2016-Dec-02 07:33N 24°21' E 118°40'2523.3
2016-Dec-02 06:28N 24°04' E 118°19'1010.2
2016-Dec-02 05:31N 23°56' E 118°13'1917.8
2016-Dec-02 04:29N 23°43' E 117°58'7515.3
2016-Dec-01 23:32N 22°59' E 116°52'15714.3
2016-Dec-01 12:33N 22°20' E 114°07'0 0.0
2016-Dec-01 02:21N 22°20' E 114°07'11 2.8
2016-Nov-30 22:16N 22°22' E 113°55'6 7.7
2016-Nov-30 21:33N 22°27' E 113°54'0 0.2
2016-Nov-30 20:29N 22°27' E 113°54'0 0.0
2016-Nov-30 19:29N 22°27' E 113°54'0 0.0
2016-Nov-30 18:29N 22°27' E 113°54'0 0.0
2016-Nov-30 17:29N 22°27' E 113°54'0 0.0
2016-Nov-30 16:29N 22°27' E 113°54'0 0.0
2016-Nov-30 15:17N 22°27' E 113°54'0 0.0
2016-Nov-30 13:29N 22°27' E 113°54'0 0.0
2016-Nov-30 12:23N 22°27' E 113°54'0 0.0
2016-Nov-30 09:18N 22°27' E 113°54'0 0.0
2016-Nov-30 08:29N 22°27' E 113°54'0 0.0
2016-Nov-30 07:08N 22°27' E 113°54'  

Dump ship's entire track history